createdAt,value
2018-08-31T00:00:51.828Z,95.00
2018-08-31T01:45:14.077Z,99.90
2018-08-31T01:47:41.037Z,99.90
2018-08-31T01:50:08.334Z,99.90
2018-08-31T01:52:35.366Z,99.90
2018-08-31T01:55:02.293Z,99.90
2018-08-31T01:57:29.628Z,99.90
2018-08-31T02:39:12.440Z,99.90
2018-08-31T02:41:39.858Z,99.90
2018-08-31T02:44:06.842Z,99.90
2018-08-31T02:46:33.822Z,99.90
2018-08-31T02:49:01.106Z,99.90
2018-08-31T02:51:28.096Z,99.90
2018-08-31T02:53:55.051Z,99.90
2018-08-31T02:56:22.459Z,99.90
2018-08-31T02:58:49.464Z,99.90
2018-08-31T03:01:16.459Z,99.90
2018-08-31T03:03:43.461Z,99.90
2018-08-31T05:43:09.585Z,99.90
2018-08-31T05:45:36.799Z,99.90
2018-08-31T05:48:03.728Z,99.30
2018-08-31T05:50:30.710Z,98.80
2018-08-31T05:52:58.115Z,98.10
2018-08-31T05:55:25.098Z,96.00
2018-08-31T05:57:52.115Z,96.90
2018-08-31T06:00:19.405Z,96.40
2018-08-31T06:02:46.431Z,96.00
2018-08-31T06:05:13.410Z,95.10
2018-08-31T06:07:40.557Z,94.40
2018-08-31T06:44:27.509Z,94.50
2018-08-31T09:06:44.077Z,84.30
2018-08-31T09:09:11.080Z,76.60
2018-08-31T09:11:38.364Z,74.80
2018-08-31T09:58:26.257Z,71.00
2018-08-31T10:05:54.321Z,49.70
2018-08-31T11:24:41.142Z,54.20
2018-08-31T11:27:08.183Z,52.40
2018-08-31T11:29:35.157Z,52.90
2018-08-31T11:32:02.326Z,52.00
2018-08-31T13:15:03.343Z,43.40
2018-08-31T13:17:30.620Z,50.60
2018-08-31T13:20:00.610Z,49.50
2018-08-31T13:22:29.952Z,48.90
2018-08-31T13:25:00.264Z,48.90
2018-08-31T14:41:06.422Z,41.60
2018-08-31T17:18:09.395Z,46.40
2018-08-31T17:20:36.349Z,45.40
2018-08-31T17:25:30.361Z,45.70
2018-08-31T17:28:03.402Z,45.60
2018-08-31T17:38:03.658Z,46.60
2018-08-31T17:40:30.799Z,46.60
2018-08-31T17:42:58.436Z,46.50
2018-08-31T17:45:25.746Z,47.10
2018-08-31T17:47:52.781Z,46.90
2018-08-31T17:50:19.827Z,47.30
2018-08-31T17:52:47.269Z,46.90
2018-08-31T17:55:14.674Z,47.10
2018-08-31T17:57:41.850Z,46.80
2018-08-31T18:00:09.401Z,48.00
2018-08-31T18:02:36.400Z,46.80
2018-08-31T18:05:03.422Z,47.20
2018-08-31T18:07:30.648Z,48.00
2018-08-31T18:09:57.615Z,49.60
2018-08-31T18:12:24.615Z,48.70
2018-08-31T18:14:51.935Z,49.10
2018-08-31T18:17:19.012Z,49.10
2018-08-31T18:19:45.944Z,49.50
2018-08-31T18:22:12.934Z,49.10
2018-08-31T18:24:39.914Z,48.40
2018-08-31T18:27:06.910Z,49.30
2018-08-31T18:29:34.301Z,50.50
2018-08-31T18:32:01.310Z,49.50
2018-08-31T18:34:28.335Z,48.90
2018-08-31T18:36:55.704Z,49.30
2018-08-31T18:39:22.730Z,50.20
2018-08-31T18:41:50.009Z,50.50
2018-08-31T18:44:17.251Z,50.50
2018-08-31T18:46:44.300Z,50.70
2018-08-31T18:49:11.324Z,49.70
2018-08-31T18:51:38.561Z,50.30
2018-08-31T18:54:05.543Z,49.20
2018-08-31T18:56:32.480Z,50.20
2018-08-31T18:58:59.856Z,50.10
2018-08-31T19:01:26.837Z,50.40
2018-08-31T19:03:53.759Z,51.30
2018-08-31T19:06:20.782Z,51.00
2018-08-31T19:08:47.828Z,51.40
2018-08-31T19:11:14.836Z,51.40
2018-08-31T19:13:47.927Z,51.20
2018-08-31T19:16:14.943Z,51.20
2018-08-31T19:18:41.975Z,51.30
2018-08-31T19:21:09.312Z,51.90
2018-08-31T19:23:36.285Z,51.10
2018-08-31T19:26:04.864Z,53.40
2018-08-31T19:31:08.662Z,52.50
2018-08-31T19:33:36.094Z,52.90
2018-08-31T19:36:03.013Z,52.60
2018-08-31T19:38:30.755Z,52.40
2018-08-31T19:40:58.128Z,53.60
2018-08-31T19:43:25.057Z,52.70
2018-08-31T19:45:52.042Z,53.30
2018-08-31T19:48:19.409Z,53.10
2018-08-31T19:50:46.417Z,53.30
2018-08-31T19:53:13.369Z,53.50
2018-08-31T19:55:40.335Z,52.90
2018-08-31T19:58:07.445Z,53.40
2018-08-31T20:00:34.461Z,53.90
2018-08-31T20:03:01.686Z,53.10
2018-08-31T20:05:28.646Z,54.00
2018-08-31T20:07:55.681Z,53.80
2018-08-31T20:10:22.994Z,52.80
2018-08-31T20:12:50.283Z,52.60
2018-08-31T20:15:17.279Z,54.00
2018-08-31T20:17:44.659Z,53.50
2018-08-31T20:22:38.897Z,54.10
2018-08-31T20:25:05.924Z,53.90
2018-08-31T20:27:32.856Z,55.40
2018-08-31T20:29:59.841Z,55.10
2018-08-31T20:32:27.138Z,55.10
2018-08-31T20:34:54.199Z,54.70
2018-08-31T20:37:21.181Z,55.30
2018-08-31T20:42:15.480Z,56.00
2018-08-31T20:59:25.794Z,54.50
2018-08-31T21:01:53.110Z,56.30
2018-08-31T21:04:20.299Z,56.60
2018-08-31T21:06:47.314Z,56.60
2018-08-31T21:09:14.697Z,57.60
2018-08-31T21:11:41.707Z,57.00
2018-08-31T21:21:30.382Z,56.20
2018-08-31T21:23:57.394Z,58.10
2018-08-31T21:26:24.412Z,57.60
2018-08-31T21:28:51.679Z,57.80
2018-08-31T21:31:19.014Z,57.70
2018-08-31T21:33:46.010Z,57.90
2018-08-31T21:36:12.965Z,58.00
2018-08-31T21:38:40.383Z,57.90
2018-08-31T21:41:07.312Z,58.00
2018-08-31T21:43:34.310Z,57.90
2018-08-31T21:46:01.646Z,58.70
2018-08-31T21:48:28.630Z,58.40
2018-08-31T21:50:55.597Z,58.50
2018-08-31T21:53:22.568Z,57.90
2018-08-31T21:55:49.549Z,58.30
2018-08-31T21:58:16.503Z,58.60
2018-08-31T22:00:43.961Z,58.50
2018-08-31T22:03:11.641Z,57.30
2018-08-31T22:05:38.733Z,57.50
2018-08-31T22:08:06.245Z,57.80
2018-08-31T22:10:33.494Z,58.00
2018-08-31T22:13:00.445Z,58.40
2018-08-31T22:15:27.474Z,58.30
2018-08-31T22:17:55.022Z,57.80
2018-08-31T22:20:22.513Z,58.00
2018-08-31T22:22:50.803Z,58.30
2018-08-31T22:26:42.479Z,58.90
2018-08-31T22:29:09.995Z,58.50
2018-08-31T22:31:36.981Z,58.40
2018-08-31T22:34:03.941Z,58.40
2018-08-31T22:36:30.949Z,58.70
2018-08-31T22:38:57.880Z,59.50
2018-08-31T22:41:24.853Z,59.40
2018-08-31T22:46:21.510Z,59.30
2018-08-31T22:48:48.919Z,59.90
2018-08-31T23:01:05.125Z,60.40
2018-08-31T23:03:32.119Z,62.60
2018-08-31T23:05:59.158Z,64.10
2018-08-31T23:08:26.131Z,64.40
2018-08-31T23:10:59.170Z,64.20
2018-08-31T23:13:26.148Z,64.00
2018-08-31T23:15:53.337Z,63.50
2018-08-31T23:18:20.670Z,63.00
2018-08-31T23:20:47.608Z,63.50
2018-08-31T23:23:20.414Z,63.00
2018-08-31T23:25:48.860Z,62.90
2018-08-31T23:28:16.161Z,62.90
2018-08-31T23:30:43.108Z,62.10
2018-08-31T23:33:10.404Z,62.40
2018-08-31T23:35:37.395Z,62.80
2018-08-31T23:38:04.381Z,61.00
2018-08-31T23:40:31.663Z,60.40
2018-08-31T23:42:59.028Z,61.30
2018-08-31T23:45:25.985Z,61.10
2018-08-31T23:47:53.270Z,61.10
2018-08-31T23:50:20.266Z,62.20
2018-08-31T23:52:47.297Z,62.60
2018-08-31T23:55:14.236Z,62.50
2018-08-31T23:57:41.247Z,62.30
